Time,TemperatureF,DewpointF,PressureIn,WindDirection,WindDirectionDegrees,WindSpeedMPH,WindSpeedGustMPH,Humidity,HourlyPrecipIn,Conditions,Clouds,dailyrainin,SoftwareType,DateUTC
2013-11-08 00:01:00,38.9,30.3,30.25,WNW,283,0.0,10.0,71,0.00,,---,0.00,VWS V14.00,2013-11-08 05:01:00,
2013-11-08 00:02:00,38.9,30.3,30.25,WNW,284,2.0,10.0,71,0.00,,---,0.00,VWS V14.00,2013-11-08 05:02:00,
2013-11-08 00:07:00,38.8,30.6,30.25,NW,325,0.0,10.0,72,0.00,,---,0.00,VWS V14.00,2013-11-08 05:07:00,
2013-11-08 00:08:00,38.8,30.6,30.25,NW,325,0.0,10.0,72,0.00,,---,0.00,VWS V14.00,2013-11-08 05:08:00,
2013-11-08 00:13:00,38.7,30.5,30.24,NNW,329,0.0,5.0,72,0.00,,---,0.00,VWS V14.00,2013-11-08 05:13:00,
2013-11-08 00:18:00,38.7,30.8,30.25,NNW,329,0.0,5.0,73,0.00,,---,0.00,VWS V14.00,2013-11-08 05:18:00,
2013-11-08 00:23:00,38.4,30.2,30.25,NNW,327,0.0,5.0,72,0.00,,---,0.00,VWS V14.00,2013-11-08 05:23:00,
2013-11-08 00:28:00,38.3,30.4,30.25,NW,326,0.0,5.0,73,0.00,,---,0.00,VWS V14.00,2013-11-08 05:28:00,
2013-11-08 00:33:00,38.0,30.1,30.25,NW,323,0.0,5.0,73,0.00,,---,0.00,VWS V14.00,2013-11-08 05:33:00,
2013-11-08 00:38:00,37.9,30.4,30.25,NW,323,0.0,5.0,74,0.00,,---,0.00,VWS V14.00,2013-11-08 05:38:00,
2013-11-08 00:43:00,37.6,30.1,30.25,NW,322,0.0,0.0,74,0.00,,---,0.00,VWS V14.00,2013-11-08 05:43:00,
2013-11-08 00:48:00,37.3,29.8,30.26,NW,322,0.0,0.0,74,0.00,,---,0.00,VWS V14.00,2013-11-08 05:48:00,
2013-11-08 00:53:00,37.1,29.9,30.26,NW,322,0.0,0.0,75,0.00,,---,0.00,VWS V14.00,2013-11-08 05:53:00,
2013-11-08 00:58:00,36.6,29.4,30.26,NW,322,0.0,0.0,75,0.00,,---,0.00,VWS V14.00,2013-11-08 05:58:00,
2013-11-08 01:03:00,36.2,29.4,30.26,NW,322,0.0,0.0,76,0.00,,---,0.00,VWS V14.00,2013-11-08 06:03:00,
2013-11-08 01:08:00,35.9,29.4,30.26,NW,322,0.0,0.0,77,0.00,,---,0.00,VWS V14.00,2013-11-08 06:08:00,
2013-11-08 01:13:00,35.6,29.1,30.26,NW,322,0.0,0.0,77,0.00,,---,0.00,VWS V14.00,2013-11-08 06:13:00,
2013-11-08 01:18:00,35.3,29.1,30.26,NW,322,0.0,1.0,78,0.00,,---,0.00,VWS V14.00,2013-11-08 06:18:00,
2013-11-08 01:23:00,35.0,29.2,30.26,NW,322,0.0,1.0,79,0.00,,---,0.00,VWS V14.00,2013-11-08 06:23:00,
2013-11-08 01:28:00,34.6,28.8,30.26,NW,322,0.0,1.0,79,0.00,,---,0.00,VWS V14.00,2013-11-08 06:28:00,
2013-11-08 01:34:00,34.4,28.9,30.26,NW,322,0.0,1.0,80,0.00,,---,0.00,VWS V14.00,2013-11-08 06:34:00,
2013-11-08 01:39:00,34.4,28.9,30.26,NW,322,0.0,0.0,80,0.00,,---,0.00,VWS V14.00,2013-11-08 06:39:00,
2013-11-08 01:44:00,34.4,29.2,30.26,NW,322,0.0,0.0,81,0.00,,---,0.00,VWS V14.00,2013-11-08 06:44:00,
2013-11-08 01:49:00,34.2,29.0,30.26,NW,322,0.0,2.0,81,0.00,,---,0.00,VWS V14.00,2013-11-08 06:49:00,
2013-11-08 01:54:00,33.9,29.0,30.26,NW,322,0.0,2.0,82,0.00,,---,0.00,VWS V14.00,2013-11-08 06:54:00,
2013-11-08 01:59:00,33.8,28.9,30.26,NW,322,0.0,2.0,82,0.00,,---,0.00,VWS V14.00,2013-11-08 06:59:00,
2013-11-08 02:04:00,33.8,29.2,30.26,NW,312,2.0,3.0,83,0.00,,---,0.00,VWS V14.00,2013-11-08 07:04:00,
2013-11-08 02:09:00,33.7,29.1,30.26,NW,311,0.0,1.0,83,0.00,,---,0.00,VWS V14.00,2013-11-08 07:09:00,
2013-11-08 02:14:00,33.7,29.1,30.26,NW,312,2.0,2.0,83,0.00,,---,0.00,VWS V14.00,2013-11-08 07:14:00,
2013-11-08 02:19:00,33.7,29.1,30.26,NW,311,0.0,3.0,83,0.00,,---,0.00,VWS V14.00,2013-11-08 07:19:00,
2013-11-08 02:24:00,33.5,28.9,30.26,WNW,301,2.0,3.0,83,0.00,,---,0.00,VWS V14.00,2013-11-08 07:24:00,
2013-11-08 02:29:00,33.4,28.8,30.27,WNW,298,1.0,3.0,83,0.00,,---,0.00,VWS V14.00,2013-11-08 07:29:00,
2013-11-08 02:34:00,33.3,28.7,30.27,WNW,298,2.0,3.0,83,0.00,,---,0.00,VWS V14.00,2013-11-08 07:34:00,
2013-11-08 02:39:00,33.3,29.0,30.27,WNW,298,2.0,3.0,84,0.00,,---,0.00,VWS V14.00,2013-11-08 07:39:00,
2013-11-08 02:44:00,33.0,28.7,30.27,WNW,298,0.0,3.0,84,0.00,,---,0.00,VWS V14.00,2013-11-08 07:44:00,
2013-11-08 02:49:00,32.9,28.6,30.27,WNW,298,0.0,3.0,84,0.00,,---,0.00,VWS V14.00,2013-11-08 07:49:00,
2013-11-08 02:54:00,32.9,28.6,30.27,WNW,298,0.0,3.0,84,0.00,,---,0.00,VWS V14.00,2013-11-08 07:54:00,
2013-11-08 02:59:00,33.0,29.0,30.26,WNW,298,0.0,3.0,85,0.00,,---,0.00,VWS V14.00,2013-11-08 07:59:00,
2013-11-08 03:04:00,33.0,29.0,30.26,WNW,298,2.0,3.0,85,0.00,,---,0.00,VWS V14.00,2013-11-08 08:04:00,
2013-11-08 03:09:00,32.8,28.8,30.26,WNW,298,2.0,3.0,85,0.00,,---,0.00,VWS V14.00,2013-11-08 08:09:00,
2013-11-08 03:14:00,32.7,28.7,30.26,WNW,298,0.0,3.0,85,0.00,,---,0.00,VWS V14.00,2013-11-08 08:14:00,
2013-11-08 03:19:00,32.6,28.6,30.27,WNW,298,0.0,3.0,85,0.00,,---,0.00,VWS V14.00,2013-11-08 08:19:00,
2013-11-08 03:24:00,32.5,28.5,30.27,WNW,298,0.0,3.0,85,0.00,,---,0.00,VWS V14.00,2013-11-08 08:24:00,
2013-11-08 03:30:00,32.6,28.6,30.27,WNW,298,2.0,3.0,85,0.00,,---,0.00,VWS V14.00,2013-11-08 08:30:00,
2013-11-08 03:35:00,32.7,29.0,30.27,WNW,298,0.0,3.0,86,0.00,,---,0.00,VWS V14.00,2013-11-08 08:35:00,
2013-11-08 03:40:00,32.6,28.6,30.27,WNW,298,0.0,2.0,85,0.00,,---,0.00,VWS V14.00,2013-11-08 08:40:00,
2013-11-08 03:45:00,32.8,29.1,30.28,WNW,292,1.0,2.0,86,0.00,,---,0.00,VWS V14.00,2013-11-08 08:45:00,
2013-11-08 03:50:00,32.8,29.1,30.28,WNW,292,2.0,3.0,86,0.00,,---,0.00,VWS V14.00,2013-11-08 08:50:00,
2013-11-08 03:55:00,32.9,29.2,30.28,WNW,292,0.0,3.0,86,0.00,,---,0.00,VWS V14.00,2013-11-08 08:55:00,
2013-11-08 04:00:00,33.0,29.3,30.28,WNW,291,0.0,3.0,86,0.00,,---,0.00,VWS V14.00,2013-11-08 09:00:00,
2013-11-08 04:05:00,32.9,29.2,30.28,WNW,292,0.0,3.0,86,0.00,,---,0.00,VWS V14.00,2013-11-08 09:05:00,
2013-11-08 04:10:00,32.6,28.6,30.29,WNW,291,0.0,1.0,85,0.00,,---,0.00,VWS V14.00,2013-11-08 09:10:00,
2013-11-08 04:15:00,32.6,28.9,30.29,WNW,292,0.0,1.0,86,0.00,,---,0.00,VWS V14.00,2013-11-08 09:15:00,
2013-11-08 04:20:00,32.7,29.0,30.29,WNW,291,0.0,2.0,86,0.00,,---,0.00,VWS V14.00,2013-11-08 09:20:00,
2013-11-08 04:25:00,32.8,29.1,30.28,WNW,292,0.0,2.0,86,0.00,,---,0.00,VWS V14.00,2013-11-08 09:25:00,
2013-11-08 04:30:00,32.6,28.9,30.28,WNW,292,0.0,2.0,86,0.00,,---,0.00,VWS V14.00,2013-11-08 09:30:00,
2013-11-08 04:35:00,32.4,28.7,30.28,WNW,292,0.0,2.0,86,0.00,,---,0.00,VWS V14.00,2013-11-08 09:35:00,
2013-11-08 04:40:00,32.3,28.6,30.28,WNW,292,1.0,2.0,86,0.00,,---,0.00,VWS V14.00,2013-11-08 09:40:00,
2013-11-08 04:45:00,32.1,28.4,30.29,WNW,292,0.0,2.0,86,0.00,,---,0.00,VWS V14.00,2013-11-08 09:45:00,
2013-11-08 04:50:00,32.0,28.3,30.29,WNW,292,2.0,2.0,86,0.00,,---,0.00,VWS V14.00,2013-11-08 09:50:00,
2013-11-08 04:55:00,31.9,28.2,30.29,WNW,291,2.0,3.0,86,0.00,,---,0.00,VWS V14.00,2013-11-08 09:55:00,
2013-11-08 05:00:00,31.9,28.2,30.29,WNW,292,2.0,3.0,86,0.00,,---,0.00,VWS V14.00,2013-11-08 10:00:00,
2013-11-08 05:05:00,31.7,28.0,30.29,WNW,291,1.0,3.0,86,0.00,,---,0.00,VWS V14.00,2013-11-08 10:05:00,
2013-11-08 05:11:00,31.6,27.9,30.29,WNW,292,2.0,2.0,86,0.00,,---,0.00,VWS V14.00,2013-11-08 10:11:00,
2013-11-08 05:16:00,31.4,27.7,30.30,WNW,292,2.0,3.0,86,0.00,,---,0.00,VWS V14.00,2013-11-08 10:16:00,
2013-11-08 05:21:00,31.3,27.6,30.30,WNW,292,1.0,3.0,86,0.00,,---,0.00,VWS V14.00,2013-11-08 10:21:00,
2013-11-08 05:26:00,31.2,27.8,30.30,WNW,291,2.0,3.0,87,0.00,,---,0.00,VWS V14.00,2013-11-08 10:26:00,
2013-11-08 05:31:00,31.2,27.8,30.30,WNW,292,2.0,3.0,87,0.00,,---,0.00,VWS V14.00,2013-11-08 10:31:00,
2013-11-08 05:36:00,31.2,27.8,30.30,WNW,291,0.0,3.0,87,0.00,,---,0.00,VWS V14.00,2013-11-08 10:36:00,
2013-11-08 05:41:00,31.0,27.6,30.31,WNW,292,1.0,2.0,87,0.00,,---,0.00,VWS V14.00,2013-11-08 10:41:00,
2013-11-08 05:46:00,30.9,27.5,30.31,WNW,292,2.0,2.0,87,0.00,,---,0.00,VWS V14.00,2013-11-08 10:46:00,
2013-11-08 05:51:00,30.9,27.5,30.31,WNW,292,0.0,2.0,87,0.00,,---,0.00,VWS V14.00,2013-11-08 10:51:00,
2013-11-08 05:56:00,30.8,27.4,30.32,WNW,291,0.0,2.0,87,0.00,,---,0.00,VWS V14.00,2013-11-08 10:56:00,
2013-11-08 06:01:00,30.8,27.4,30.32,WNW,291,1.0,2.0,87,0.00,,---,0.00,VWS V14.00,2013-11-08 11:01:00,
2013-11-08 06:06:00,30.9,27.5,30.32,WNW,292,0.0,2.0,87,0.00,,---,0.00,VWS V14.00,2013-11-08 11:06:00,
2013-11-08 06:11:00,31.0,27.6,30.33,WNW,291,0.0,3.0,87,0.00,,---,0.00,VWS V14.00,2013-11-08 11:11:00,
2013-11-08 06:16:00,31.1,27.7,30.33,WNW,292,0.0,3.0,87,0.00,,---,0.00,VWS V14.00,2013-11-08 11:16:00,
2013-11-08 06:21:00,31.1,27.7,30.32,WNW,291,0.0,3.0,87,0.00,,---,0.00,VWS V14.00,2013-11-08 11:21:00,
2013-11-08 06:26:00,31.1,27.7,30.32,WNW,292,0.0,3.0,87,0.00,,---,0.00,VWS V14.00,2013-11-08 11:26:00,
2013-11-08 06:31:00,31.1,27.7,30.32,WNW,292,0.0,3.0,87,0.00,,---,0.00,VWS V14.00,2013-11-08 11:31:00,
2013-11-08 06:36:00,31.2,28.1,30.33,WNW,292,0.0,3.0,88,0.00,,---,0.00,VWS V14.00,2013-11-08 11:36:00,
2013-11-08 06:42:00,31.3,28.2,30.33,WNW,291,0.0,1.0,88,0.00,,---,0.00,VWS V14.00,2013-11-08 11:42:00,
2013-11-08 06:47:00,31.5,28.4,30.33,WNW,292,0.0,2.0,88,0.00,,---,0.00,VWS V14.00,2013-11-08 11:47:00,
2013-11-08 06:52:00,31.5,28.1,30.33,WNW,292,1.0,3.0,87,0.00,,---,0.00,VWS V14.00,2013-11-08 11:52:00,
2013-11-08 06:57:00,31.5,28.1,30.33,WNW,291,0.0,3.0,87,0.00,,---,0.00,VWS V14.00,2013-11-08 11:57:00,
2013-11-08 07:02:00,31.6,28.2,30.33,WNW,292,0.0,3.0,87,0.00,,---,0.00,VWS V14.00,2013-11-08 12:02:00,
2013-11-08 07:07:00,31.6,28.2,30.34,WNW,291,0.0,3.0,87,0.00,,---,0.00,VWS V14.00,2013-11-08 12:07:00,
2013-11-08 07:12:00,31.8,28.4,30.34,WNW,291,0.0,0.0,87,0.00,,---,0.00,VWS V14.00,2013-11-08 12:12:00,
2013-11-08 07:17:00,31.8,28.4,30.34,WNW,291,0.0,0.0,87,0.00,,---,0.00,VWS V14.00,2013-11-08 12:17:00,
2013-11-08 07:22:00,31.8,28.4,30.34,WNW,292,0.0,0.0,87,0.00,,---,0.00,VWS V14.00,2013-11-08 12:22:00,
2013-11-08 07:27:00,31.6,28.2,30.34,WNW,292,0.0,0.0,87,0.00,,---,0.00,VWS V14.00,2013-11-08 12:27:00,
2013-11-08 07:32:00,31.5,28.1,30.34,WNW,292,0.0,0.0,87,0.00,,---,0.00,VWS V14.00,2013-11-08 12:32:00,
2013-11-08 07:37:00,31.5,28.1,30.34,WNW,292,0.0,2.0,87,0.00,,---,0.00,VWS V14.00,2013-11-08 12:37:00,
2013-11-08 07:42:00,31.6,28.2,30.34,WNW,289,0.0,0.0,87,0.00,,---,0.00,VWS V14.00,2013-11-08 12:42:00,
2013-11-08 07:47:00,31.9,28.5,30.34,NW,304,0.0,0.0,87,0.00,,---,0.00,VWS V14.00,2013-11-08 12:47:00,
2013-11-08 07:52:00,32.3,28.9,30.34,WNW,303,0.0,1.0,87,0.00,,---,0.00,VWS V14.00,2013-11-08 12:52:00,
2013-11-08 07:57:00,32.5,29.1,30.34,NW,304,0.0,1.0,87,0.00,,---,0.00,VWS V14.00,2013-11-08 12:57:00,
2013-11-08 08:02:00,32.9,29.5,30.35,WNW,302,0.0,1.0,87,0.00,,---,0.00,VWS V14.00,2013-11-08 13:02:00,
2013-11-08 08:07:00,33.4,30.0,30.34,WNW,295,0.0,1.0,87,0.00,,---,0.00,VWS V14.00,2013-11-08 13:07:00,
2013-11-08 08:12:00,34.0,30.5,30.35,WNW,295,0.0,0.0,87,0.00,,---,0.00,VWS V14.00,2013-11-08 13:12:00,
2013-11-08 08:17:00,34.5,31.0,30.35,WNW,295,0.0,0.0,87,0.00,,---,0.00,VWS V14.00,2013-11-08 13:17:00,
2013-11-08 08:22:00,35.4,33.3,30.35,WNW,287,0.0,0.0,92,0.00,,---,0.00,VWS V14.00,2013-11-08 13:22:00,
2013-11-08 08:28:00,35.9,31.8,30.35,WSW,250,0.0,0.0,85,0.00,,---,0.00,VWS V14.00,2013-11-08 13:28:00,
2013-11-08 08:33:00,36.4,32.0,30.35,SSE,160,1.0,2.0,84,0.00,,---,0.00,VWS V14.00,2013-11-08 13:33:00,
2013-11-08 08:38:00,36.9,32.2,30.35,South,169,0.0,3.0,83,0.00,,---,0.00,VWS V14.00,2013-11-08 13:38:00,
2013-11-08 08:43:00,37.5,32.2,30.35,South,169,0.0,1.0,81,0.00,,---,0.00,VWS V14.00,2013-11-08 13:43:00,
2013-11-08 08:48:00,37.6,32.0,30.35,South,172,2.0,6.0,80,0.00,,---,0.00,VWS V14.00,2013-11-08 13:48:00,
2013-11-08 08:53:00,37.7,31.8,30.35,SSW,203,0.0,6.0,79,0.00,,---,0.00,VWS V14.00,2013-11-08 13:53:00,
2013-11-08 08:58:00,37.9,31.7,30.35,SW,233,4.0,6.0,78,0.00,,---,0.00,VWS V14.00,2013-11-08 13:58:00,
2013-11-08 09:03:00,38.1,32.2,30.35,SSW,198,0.0,6.0,79,0.00,,---,0.00,VWS V14.00,2013-11-08 14:03:00,
2013-11-08 09:08:00,38.2,32.0,30.35,SSW,209,0.0,6.0,78,0.00,,---,0.00,VWS V14.00,2013-11-08 14:08:00,
2013-11-08 09:13:00,38.4,31.8,30.35,South,179,3.0,6.0,77,0.00,,---,0.00,VWS V14.00,2013-11-08 14:13:00,
2013-11-08 09:18:00,38.5,31.6,30.35,South,169,3.0,6.0,76,0.00,,---,0.00,VWS V14.00,2013-11-08 14:18:00,
2013-11-08 09:23:00,38.7,31.8,30.35,SSE,166,4.0,6.0,76,0.00,,---,0.00,VWS V14.00,2013-11-08 14:23:00,
2013-11-08 09:28:00,38.6,31.7,30.35,South,173,4.0,9.0,76,0.00,,---,0.00,VWS V14.00,2013-11-08 14:28:00,
2013-11-08 09:33:00,38.8,31.6,30.35,SSE,168,0.0,9.0,75,0.00,,---,0.00,VWS V14.00,2013-11-08 14:33:00,
2013-11-08 09:38:00,39.3,31.7,30.35,South,169,5.0,5.0,74,0.00,,---,0.00,VWS V14.00,2013-11-08 14:38:00,
2013-11-08 09:43:00,39.7,32.1,30.34,South,179,4.0,6.0,74,0.00,,---,0.00,VWS V14.00,2013-11-08 14:43:00,
2013-11-08 09:48:00,39.9,32.0,30.34,South,173,2.0,6.0,73,0.00,,---,0.00,VWS V14.00,2013-11-08 14:48:00,
2013-11-08 09:53:00,40.2,32.2,30.34,SSW,196,3.0,6.0,73,0.00,,---,0.00,VWS V14.00,2013-11-08 14:53:00,
2013-11-08 09:58:00,40.7,32.4,30.34,SSW,200,0.0,6.0,72,0.00,,---,0.00,VWS V14.00,2013-11-08 14:58:00,
2013-11-08 10:04:00,41.2,32.2,30.33,SSE,155,4.0,6.0,70,0.00,,---,0.00,VWS V14.00,2013-11-08 15:04:00,
2013-11-08 10:09:00,41.3,32.3,30.34,SSE,161,0.0,0.0,70,0.00,,---,0.00,VWS V14.00,2013-11-08 15:09:00,
2013-11-08 10:14:00,41.6,32.6,30.34,South,169,4.0,5.0,70,0.00,,---,0.00,VWS V14.00,2013-11-08 15:14:00,
2013-11-08 10:19:00,41.7,32.7,30.34,SE,132,4.0,5.0,70,0.00,,---,0.00,VWS V14.00,2013-11-08 15:19:00,
2013-11-08 10:24:00,41.9,33.2,30.33,SSE,160,7.0,7.0,71,0.00,,---,0.00,VWS V14.00,2013-11-08 15:24:00,
2013-11-08 10:29:00,41.7,33.0,30.33,SSE,152,3.0,7.0,71,0.00,,---,0.00,VWS V14.00,2013-11-08 15:29:00,
2013-11-08 10:34:00,41.9,32.8,30.33,SE,144,4.0,7.0,70,0.00,,---,0.00,VWS V14.00,2013-11-08 15:34:00,
2013-11-08 10:39:00,42.0,33.3,30.33,SE,130,4.0,6.0,71,0.00,,---,0.00,VWS V14.00,2013-11-08 15:39:00,
2013-11-08 10:44:00,42.2,33.8,30.33,SE,126,4.0,6.0,72,0.00,,---,0.00,VWS V14.00,2013-11-08 15:44:00,
2013-11-08 10:49:00,42.3,33.6,30.33,ESE,106,3.0,6.0,71,0.00,,---,0.00,VWS V14.00,2013-11-08 15:49:00,
2013-11-08 10:54:00,42.2,33.5,30.33,ESE,109,4.0,6.0,71,0.00,,---,0.00,VWS V14.00,2013-11-08 15:54:00,
2013-11-08 10:59:00,42.4,33.3,30.33,ESE,111,4.0,6.0,70,0.00,,---,0.00,VWS V14.00,2013-11-08 15:59:00,
2013-11-08 11:04:00,42.5,33.1,30.33,ESE,110,1.0,6.0,69,0.00,,---,0.00,VWS V14.00,2013-11-08 16:04:00,
2013-11-08 11:09:00,42.8,33.7,30.33,East,98,4.0,4.0,70,0.00,,---,0.00,VWS V14.00,2013-11-08 16:09:00,
2013-11-08 11:14:00,43.2,33.7,30.33,SE,140,7.0,9.0,69,0.00,,---,0.00,VWS V14.00,2013-11-08 16:14:00,
2013-11-08 11:19:00,44.2,34.0,30.33,ESE,122,3.0,10.0,67,0.00,,---,0.00,VWS V14.00,2013-11-08 16:19:00,
2013-11-08 11:24:00,44.8,34.2,30.32,SSE,147,8.0,11.0,66,0.00,,---,0.00,VWS V14.00,2013-11-08 16:24:00,
2013-11-08 11:30:00,45.0,33.6,30.32,SSE,163,7.0,11.0,64,0.00,,---,0.00,VWS V14.00,2013-11-08 16:30:00,
2013-11-08 11:35:00,45.1,33.7,30.32,SE,144,6.0,11.0,64,0.00,,---,0.00,VWS V14.00,2013-11-08 16:35:00,
2013-11-08 11:40:00,45.0,34.3,30.32,SE,145,7.0,9.0,66,0.00,,---,0.00,VWS V14.00,2013-11-08 16:40:00,
2013-11-08 11:45:00,45.1,33.3,30.31,SE,146,9.0,12.0,63,0.00,,---,0.00,VWS V14.00,2013-11-08 16:45:00,
2013-11-08 11:50:00,45.2,33.4,30.31,SE,132,11.0,14.0,63,0.00,,---,0.00,VWS V14.00,2013-11-08 16:50:00,
2013-11-08 11:55:00,45.8,32.3,30.31,SSE,148,6.0,14.0,59,0.00,,---,0.00,VWS V14.00,2013-11-08 16:55:00,
2013-11-08 12:00:00,46.3,33.2,30.30,SSE,151,9.0,14.0,60,0.00,,---,0.00,VWS V14.00,2013-11-08 17:00:00,
2013-11-08 12:05:00,46.3,32.3,30.30,ESE,122,5.0,14.0,58,0.00,,---,0.00,VWS V14.00,2013-11-08 17:05:00,
2013-11-08 12:10:00,46.8,33.2,30.30,ESE,122,5.0,7.0,59,0.00,,---,0.00,VWS V14.00,2013-11-08 17:10:00,
2013-11-08 12:15:00,47.0,32.6,30.30,ESE,121,4.0,7.0,57,0.00,,---,0.00,VWS V14.00,2013-11-08 17:15:00,
2013-11-08 12:20:00,47.3,32.8,30.30,East,96,6.0,7.0,57,0.00,,---,0.00,VWS V14.00,2013-11-08 17:20:00,
2013-11-08 12:25:00,47.6,32.2,30.29,SE,126,6.0,7.0,55,0.00,,---,0.00,VWS V14.00,2013-11-08 17:25:00,
2013-11-08 12:30:00,47.6,32.2,30.28,SE,125,4.0,7.0,55,0.00,,---,0.00,VWS V14.00,2013-11-08 17:30:00,
2013-11-08 12:35:00,47.9,32.5,30.28,SE,133,4.0,7.0,55,0.00,,---,0.00,VWS V14.00,2013-11-08 17:35:00,
2013-11-08 12:40:00,48.0,32.6,30.28,ESE,107,4.0,7.0,55,0.00,,---,0.00,VWS V14.00,2013-11-08 17:40:00,
2013-11-08 12:45:00,47.9,31.6,30.27,ESE,118,3.0,7.0,53,0.00,,---,0.00,VWS V14.00,2013-11-08 17:45:00,
2013-11-08 12:50:00,48.1,32.7,30.27,ESE,103,3.0,7.0,55,0.00,,---,0.00,VWS V14.00,2013-11-08 17:50:00,
2013-11-08 12:55:00,48.1,33.2,30.27,East,98,3.0,7.0,56,0.00,,---,0.00,VWS V14.00,2013-11-08 17:55:00,
2013-11-08 13:01:00,48.4,31.6,30.26,ESE,122,4.0,7.0,52,0.00,,---,0.00,VWS V14.00,2013-11-08 18:01:00,
2013-11-08 13:06:00,48.7,33.3,30.26,ESE,121,4.0,7.0,55,0.00,,---,0.00,VWS V14.00,2013-11-08 18:06:00,
2013-11-08 13:11:00,48.8,32.4,30.26,ESE,122,4.0,5.0,53,0.00,,---,0.00,VWS V14.00,2013-11-08 18:11:00,
2013-11-08 13:16:00,48.9,33.0,30.26,ESE,119,4.0,6.0,54,0.00,,---,0.00,VWS V14.00,2013-11-08 18:16:00,
2013-11-08 13:21:00,49.0,31.7,30.25,ESE,120,3.0,6.0,51,0.00,,---,0.00,VWS V14.00,2013-11-08 18:21:00,
2013-11-08 13:26:00,49.2,31.9,30.25,ESE,119,3.0,6.0,51,0.00,,---,0.00,VWS V14.00,2013-11-08 18:26:00,
2013-11-08 13:31:00,49.4,32.0,30.25,East,84,4.0,6.0,51,0.00,,---,0.00,VWS V14.00,2013-11-08 18:31:00,
2013-11-08 13:36:00,49.3,32.9,30.25,ENE,77,2.0,6.0,53,0.00,,---,0.00,VWS V14.00,2013-11-08 18:36:00,
2013-11-08 13:41:00,49.2,33.3,29.98,ENE,74,2.0,4.0,54,0.00,,---,0.00,VWS V14.00,2013-11-08 18:41:00,
2013-11-08 13:46:00,49.4,32.5,30.24,SE,144,5.0,6.0,52,0.00,,---,0.00,VWS V14.00,2013-11-08 18:46:00,
2013-11-08 13:51:00,49.9,31.0,30.24,SE,146,3.0,6.0,48,0.00,,---,0.00,VWS V14.00,2013-11-08 18:51:00,
2013-11-08 13:56:00,50.1,32.2,30.24,SE,126,8.0,9.0,50,0.00,,---,0.00,VWS V14.00,2013-11-08 18:56:00,
2013-11-08 14:01:00,50.1,31.2,30.23,SE,138,9.0,10.0,48,0.00,,---,0.00,VWS V14.00,2013-11-08 19:01:00,
2013-11-08 14:06:00,50.4,30.4,30.23,SE,129,2.0,13.0,46,0.00,,---,0.00,VWS V14.00,2013-11-08 19:06:00,
2013-11-08 14:11:00,50.6,31.1,30.23,SE,125,5.0,6.0,47,0.00,,---,0.00,VWS V14.00,2013-11-08 19:11:00,
2013-11-08 14:16:00,50.7,30.7,30.22,ESE,116,2.0,6.0,46,0.00,,---,0.00,VWS V14.00,2013-11-08 19:16:00,
2013-11-08 14:21:00,50.8,31.3,30.22,SSE,147,4.0,6.0,47,0.00,,---,0.00,VWS V14.00,2013-11-08 19:21:00,
2013-11-08 14:26:00,50.7,31.7,30.22,SE,125,3.0,6.0,48,0.00,,---,0.00,VWS V14.00,2013-11-08 19:26:00,
2013-11-08 14:31:00,50.7,31.7,30.22,ESE,109,2.0,6.0,48,0.00,,---,0.00,VWS V14.00,2013-11-08 19:31:00,
2013-11-08 14:36:00,50.7,32.2,30.22,ESE,111,3.0,6.0,49,0.00,,---,0.00,VWS V14.00,2013-11-08 19:36:00,
2013-11-08 14:42:00,50.8,31.3,29.30,ESE,111,3.0,4.0,47,0.00,,---,0.00,VWS V14.00,2013-11-08 19:42:00,
2013-11-08 14:47:00,50.9,29.8,29.18,ESE,113,0.0,4.0,44,0.00,,---,0.00,VWS V14.00,2013-11-08 19:47:00,
2013-11-08 14:52:00,51.0,32.0,29.18,SE,125,4.0,5.0,48,0.00,,---,0.00,VWS V14.00,2013-11-08 19:52:00,
2013-11-08 14:57:00,51.3,30.7,29.18,SE,130,5.0,9.0,45,0.00,,---,0.00,VWS V14.00,2013-11-08 19:57:00,
2013-11-08 15:02:00,51.4,31.9,29.31,SE,134,6.0,9.0,47,0.00,,---,0.00,VWS V14.00,2013-11-08 20:02:00,
2013-11-08 15:07:00,51.5,30.9,29.31,SSE,158,7.0,9.0,45,0.00,,---,0.00,VWS V14.00,2013-11-08 20:07:00,
2013-11-08 15:12:00,51.8,31.1,29.47,SE,144,10.0,10.0,45,0.00,,---,0.00,VWS V14.00,2013-11-08 20:12:00,
2013-11-08 15:17:00,51.9,31.2,29.47,SSE,147,5.0,10.0,45,0.00,,---,0.00,VWS V14.00,2013-11-08 20:17:00,
2013-11-08 15:22:00,52.0,31.9,29.47,SSE,153,6.0,10.0,46,0.00,,---,0.00,VWS V14.00,2013-11-08 20:22:00,
2013-11-08 15:27:00,52.1,29.7,29.47,SSE,154,5.0,10.0,42,0.00,,---,0.00,VWS V14.00,2013-11-08 20:27:00,
2013-11-08 15:32:00,52.3,29.9,29.47,SSE,152,3.0,10.0,42,0.00,,---,0.00,VWS V14.00,2013-11-08 20:32:00,
2013-11-08 15:37:00,52.4,31.1,29.47,SSE,160,3.0,10.0,44,0.00,,---,0.00,VWS V14.00,2013-11-08 20:37:00,
2013-11-08 15:42:00,52.7,31.4,29.47,SSE,157,8.0,8.0,44,0.00,,---,0.00,VWS V14.00,2013-11-08 20:42:00,
2013-11-08 15:47:00,52.5,30.7,29.47,SSE,167,9.0,12.0,43,0.00,,---,0.00,VWS V14.00,2013-11-08 20:47:00,
2013-11-08 15:52:00,52.4,31.1,29.47,South,188,3.0,12.0,44,0.00,,---,0.00,VWS V14.00,2013-11-08 20:52:00,
2013-11-08 15:57:00,52.4,30.0,29.47,South,190,4.0,12.0,42,0.00,,---,0.00,VWS V14.00,2013-11-08 20:57:00,
2013-11-08 16:02:00,52.5,30.7,29.47,South,189,0.0,12.0,43,0.00,,---,0.00,VWS V14.00,2013-11-08 21:02:00,
2013-11-08 16:07:00,52.6,30.8,29.67,South,182,3.0,12.0,43,0.00,,---,0.00,VWS V14.00,2013-11-08 21:07:00,
2013-11-08 16:12:00,52.4,32.8,29.45,South,184,4.0,5.0,47,0.00,,---,0.00,VWS V14.00,2013-11-08 21:12:00,
2013-11-08 16:17:00,52.2,32.1,29.49,South,184,0.0,5.0,46,0.00,,---,0.00,VWS V14.00,2013-11-08 21:17:00,
2013-11-08 16:22:00,52.1,30.9,29.49,South,171,3.0,7.0,44,0.00,,---,0.00,VWS V14.00,2013-11-08 21:22:00,
2013-11-08 16:27:00,52.1,32.5,29.49,South,172,3.0,7.0,47,0.00,,---,0.00,VWS V14.00,2013-11-08 21:27:00,
2013-11-08 16:33:00,51.8,31.7,29.49,SSW,194,0.0,7.0,46,0.00,,---,0.00,VWS V14.00,2013-11-08 21:33:00,
2013-11-08 16:38:00,51.5,31.4,30.18,SSW,194,0.0,7.0,46,0.00,,---,0.00,VWS V14.00,2013-11-08 21:38:00,
2013-11-08 16:43:00,51.8,31.7,30.01,SSW,194,0.0,0.0,46,0.00,,---,0.00,VWS V14.00,2013-11-08 21:43:00,
2013-11-08 16:48:00,52.3,32.2,30.19,SSW,194,0.0,2.0,46,0.00,,---,0.00,VWS V14.00,2013-11-08 21:48:00,
2013-11-08 16:53:00,52.1,32.5,30.18,SSW,192,1.0,4.0,47,0.00,,---,0.00,VWS V14.00,2013-11-08 21:53:00,
2013-11-08 16:58:00,51.8,32.8,30.18,SSW,192,0.0,4.0,48,0.00,,---,0.00,VWS V14.00,2013-11-08 21:58:00,
2013-11-08 17:03:00,51.4,31.9,30.19,SSW,192,0.0,4.0,47,0.00,,---,0.00,VWS V14.00,2013-11-08 22:03:00,
2013-11-08 17:08:00,51.0,31.5,30.19,South,191,0.0,0.0,47,0.00,,---,0.00,VWS V14.00,2013-11-08 22:08:00,
2013-11-08 17:13:00,50.8,31.3,30.19,SSW,192,0.0,0.0,47,0.00,,---,0.00,VWS V14.00,2013-11-08 22:13:00,
2013-11-08 17:18:00,50.6,31.1,30.19,SSW,194,1.0,2.0,47,0.00,,---,0.00,VWS V14.00,2013-11-08 22:18:00,
2013-11-08 17:23:00,50.2,30.2,30.20,SSW,194,0.0,2.0,46,0.00,,---,0.00,VWS V14.00,2013-11-08 22:23:00,
2013-11-08 17:28:00,50.2,30.2,30.20,SSW,194,0.0,2.0,46,0.00,,---,0.00,VWS V14.00,2013-11-08 22:28:00,
2013-11-08 17:34:00,50.0,31.1,30.20,SSW,194,2.0,3.0,48,0.00,,---,0.00,VWS V14.00,2013-11-08 22:34:00,
2013-11-08 17:39:00,49.6,30.2,30.19,SSW,194,0.0,1.0,47,0.00,,---,0.00,VWS V14.00,2013-11-08 22:39:00,
2013-11-08 17:44:00,49.4,30.5,30.19,SSW,194,0.0,3.0,48,0.00,,---,0.00,VWS V14.00,2013-11-08 22:44:00,
2013-11-08 17:49:00,49.4,31.1,30.19,SSW,194,0.0,3.0,49,0.00,,---,0.00,VWS V14.00,2013-11-08 22:49:00,
2013-11-08 17:54:00,49.2,31.4,30.19,SSW,194,0.0,3.0,50,0.00,,---,0.00,VWS V14.00,2013-11-08 22:54:00,
2013-11-08 17:59:00,48.8,32.0,30.19,SSW,194,0.0,3.0,52,0.00,,---,0.00,VWS V14.00,2013-11-08 22:59:00,
2013-11-08 18:04:00,48.4,32.1,30.18,SSW,194,0.0,3.0,53,0.00,,---,0.00,VWS V14.00,2013-11-08 23:04:00,
2013-11-08 18:09:00,48.2,31.4,30.19,SSW,194,0.0,3.0,52,0.00,,---,0.00,VWS V14.00,2013-11-08 23:09:00,
2013-11-08 18:14:00,48.2,32.3,30.19,SSW,194,0.0,3.0,54,0.00,,---,0.00,VWS V14.00,2013-11-08 23:14:00,
2013-11-08 18:19:00,48.5,31.7,30.19,SSW,194,0.0,3.0,52,0.00,,---,0.00,VWS V14.00,2013-11-08 23:19:00,
2013-11-08 18:24:00,49.0,32.2,30.19,SSW,194,0.0,3.0,52,0.00,,---,0.00,VWS V14.00,2013-11-08 23:24:00,
2013-11-08 18:29:00,49.0,31.7,30.19,SSW,194,0.0,3.0,51,0.00,,---,0.00,VWS V14.00,2013-11-08 23:29:00,
2013-11-08 18:34:00,48.6,31.8,30.19,SSW,194,0.0,3.0,52,0.00,,---,0.00,VWS V14.00,2013-11-08 23:34:00,
2013-11-08 18:39:00,48.2,30.9,30.20,SSW,194,0.0,0.0,51,0.00,,---,0.00,VWS V14.00,2013-11-08 23:39:00,
2013-11-08 18:44:00,47.9,31.1,30.20,SSW,194,0.0,1.0,52,0.00,,---,0.00,VWS V14.00,2013-11-08 23:44:00,
2013-11-08 18:49:00,47.7,30.5,30.20,SSW,194,0.0,1.0,51,0.00,,---,0.00,VWS V14.00,2013-11-08 23:49:00,
2013-11-08 18:54:00,47.0,30.3,30.20,SSW,194,1.0,2.0,52,0.00,,---,0.00,VWS V14.00,2013-11-08 23:54:00,
2013-11-08 18:59:00,46.7,30.5,30.20,SSW,194,0.0,2.0,53,0.00,,---,0.00,VWS V14.00,2013-11-08 23:59:00,
2013-11-08 19:05:00,46.3,30.6,30.19,SSW,194,0.0,2.0,54,0.00,,---,0.00,VWS V14.00,2013-11-09 00:05:00,
2013-11-08 19:10:00,45.8,30.6,30.19,SSW,194,0.0,0.0,55,0.00,,---,0.00,VWS V14.00,2013-11-09 00:10:00,
2013-11-08 19:15:00,45.3,30.1,30.18,SSW,194,0.0,0.0,55,0.00,,---,0.00,VWS V14.00,2013-11-09 00:15:00,
2013-11-08 19:20:00,45.1,30.4,30.18,SSW,194,0.0,0.0,56,0.00,,---,0.00,VWS V14.00,2013-11-09 00:20:00,
2013-11-08 19:25:00,45.3,32.2,30.18,SSW,194,2.0,3.0,60,0.00,,---,0.00,VWS V14.00,2013-11-09 00:25:00,
2013-11-08 19:30:00,45.8,32.3,30.18,SSW,194,2.0,4.0,59,0.00,,---,0.00,VWS V14.00,2013-11-09 00:30:00,
2013-11-08 19:35:00,46.0,32.1,30.18,SSW,194,2.0,4.0,58,0.00,,---,0.00,VWS V14.00,2013-11-09 00:35:00,
2013-11-08 19:40:00,46.4,32.4,30.17,SSW,194,0.0,0.0,58,0.00,,---,0.00,VWS V14.00,2013-11-09 00:40:00,
2013-11-08 19:45:00,46.5,33.0,30.17,SSW,194,0.0,1.0,59,0.00,,---,0.00,VWS V14.00,2013-11-09 00:45:00,
2013-11-08 19:50:00,46.4,33.3,30.17,SSW,194,0.0,2.0,60,0.00,,---,0.00,VWS V14.00,2013-11-09 00:50:00,
2013-11-08 19:55:00,46.4,32.9,30.17,SSW,194,0.0,2.0,59,0.00,,---,0.00,VWS V14.00,2013-11-09 00:55:00,
2013-11-08 20:00:00,46.3,32.8,30.17,SSW,193,2.0,2.0,59,0.00,,---,0.00,VWS V14.00,2013-11-09 01:00:00,
2013-11-08 20:05:00,46.4,31.6,30.17,SSW,192,0.0,3.0,56,0.00,,---,0.00,VWS V14.00,2013-11-09 01:05:00,
2013-11-08 20:10:00,46.5,31.7,30.16,SSW,193,0.0,2.0,56,0.00,,---,0.00,VWS V14.00,2013-11-09 01:10:00,
2013-11-08 20:16:00,46.7,31.4,30.16,SSW,194,0.0,4.0,55,0.00,,---,0.00,VWS V14.00,2013-11-09 01:16:00,
2013-11-08 20:21:00,46.8,32.0,30.16,SSW,194,0.0,4.0,56,0.00,,---,0.00,VWS V14.00,2013-11-09 01:21:00,
2013-11-08 20:26:00,46.8,32.0,30.16,SSW,194,0.0,4.0,56,0.00,,---,0.00,VWS V14.00,2013-11-09 01:26:00,
2013-11-08 20:31:00,46.4,31.6,30.16,SSW,194,0.0,4.0,56,0.00,,---,0.00,VWS V14.00,2013-11-09 01:31:00,
2013-11-08 20:36:00,46.1,31.7,30.16,SSW,194,0.0,4.0,57,0.00,,---,0.00,VWS V14.00,2013-11-09 01:36:00,
2013-11-08 20:41:00,46.0,32.1,30.15,SSW,194,0.0,0.0,58,0.00,,---,0.00,VWS V14.00,2013-11-09 01:41:00,
2013-11-08 20:46:00,45.8,32.7,30.15,SSW,194,0.0,0.0,60,0.00,,---,0.00,VWS V14.00,2013-11-09 01:46:00,
2013-11-08 20:51:00,45.7,32.2,30.15,SSW,194,0.0,3.0,59,0.00,,---,0.00,VWS V14.00,2013-11-09 01:51:00,
2013-11-08 20:56:00,45.7,32.2,30.15,SSW,194,0.0,3.0,59,0.00,,---,0.00,VWS V14.00,2013-11-09 01:56:00,
2013-11-08 21:01:00,45.6,32.1,30.16,SSW,194,0.0,3.0,59,0.00,,---,0.00,VWS V14.00,2013-11-09 02:01:00,
2013-11-08 21:06:00,45.4,31.9,30.17,SSW,194,1.0,3.0,59,0.00,,---,0.00,VWS V14.00,2013-11-09 02:06:00,
2013-11-08 21:11:00,45.3,31.8,30.17,SSW,194,0.0,2.0,59,0.00,,---,0.00,VWS V14.00,2013-11-09 02:11:00,
2013-11-08 21:16:00,45.0,31.1,30.17,SSW,194,0.0,3.0,58,0.00,,---,0.00,VWS V14.00,2013-11-09 02:16:00,
2013-11-08 21:21:00,45.0,31.5,30.17,SSW,194,0.0,3.0,59,0.00,,---,0.00,VWS V14.00,2013-11-09 02:21:00,
2013-11-08 21:26:00,44.7,31.7,30.17,SSW,194,1.0,3.0,60,0.00,,---,0.00,VWS V14.00,2013-11-09 02:26:00,
2013-11-08 21:32:00,44.4,31.4,30.17,SSW,194,0.0,3.0,60,0.00,,---,0.00,VWS V14.00,2013-11-09 02:32:00,
2013-11-08 21:37:00,44.1,31.5,30.17,SSW,194,0.0,3.0,61,0.00,,---,0.00,VWS V14.00,2013-11-09 02:37:00,
2013-11-08 21:42:00,44.0,31.4,30.16,SSW,194,0.0,1.0,61,0.00,,---,0.00,VWS V14.00,2013-11-09 02:42:00,
2013-11-08 21:47:00,44.0,31.0,30.16,SSW,194,0.0,1.0,60,0.00,,---,0.00,VWS V14.00,2013-11-09 02:47:00,
2013-11-08 21:52:00,44.5,31.9,30.16,SSW,194,0.0,2.0,61,0.00,,---,0.00,VWS V14.00,2013-11-09 02:52:00,
2013-11-08 21:57:00,44.9,32.3,30.15,SSW,194,0.0,2.0,61,0.00,,---,0.00,VWS V14.00,2013-11-09 02:57:00,
2013-11-08 22:02:00,45.0,31.5,30.15,SSW,194,3.0,3.0,59,0.00,,---,0.00,VWS V14.00,2013-11-09 03:02:00,
2013-11-08 22:07:00,45.6,30.8,30.15,South,177,6.0,6.0,56,0.00,,---,0.00,VWS V14.00,2013-11-09 03:07:00,
2013-11-08 22:12:00,46.1,30.4,30.14,South,191,3.0,5.0,54,0.00,,---,0.00,VWS V14.00,2013-11-09 03:12:00,
2013-11-08 22:17:00,46.3,30.6,30.14,SSW,200,4.0,9.0,54,0.00,,---,0.00,VWS V14.00,2013-11-09 03:17:00,
2013-11-08 22:22:00,46.3,30.1,30.14,SSW,194,4.0,9.0,53,0.00,,---,0.00,VWS V14.00,2013-11-09 03:22:00,
2013-11-08 22:27:00,46.3,30.6,30.15,South,176,0.0,9.0,54,0.00,,---,0.00,VWS V14.00,2013-11-09 03:27:00,
2013-11-08 22:32:00,45.9,30.7,30.15,WSW,239,0.0,9.0,55,0.00,,---,0.00,VWS V14.00,2013-11-09 03:32:00,
2013-11-08 22:37:00,45.5,30.7,30.15,SW,234,2.0,9.0,56,0.00,,---,0.00,VWS V14.00,2013-11-09 03:37:00,
2013-11-08 22:42:00,45.6,30.4,30.15,SSW,203,5.0,6.0,55,0.00,,---,0.00,VWS V14.00,2013-11-09 03:42:00,
2013-11-08 22:47:00,45.7,30.5,30.16,SSW,194,2.0,6.0,55,0.00,,---,0.00,VWS V14.00,2013-11-09 03:47:00,
2013-11-08 22:52:00,45.8,30.1,30.16,SSW,207,0.0,7.0,54,0.00,,---,0.00,VWS V14.00,2013-11-09 03:52:00,
2013-11-08 22:57:00,45.7,30.5,30.15,SSW,196,2.0,9.0,55,0.00,,---,0.00,VWS V14.00,2013-11-09 03:57:00,
2013-11-08 23:03:00,45.6,30.4,30.15,South,171,4.0,9.0,55,0.00,,---,0.00,VWS V14.00,2013-11-09 04:03:00,
2013-11-08 23:08:00,45.2,30.5,30.15,South,190,2.0,9.0,56,0.00,,---,0.00,VWS V14.00,2013-11-09 04:08:00,
2013-11-08 23:13:00,45.1,29.9,30.14,South,180,2.0,6.0,55,0.00,,---,0.00,VWS V14.00,2013-11-09 04:13:00,
2013-11-08 23:18:00,45.0,29.8,30.14,SSW,206,0.0,6.0,55,0.00,,---,0.00,VWS V14.00,2013-11-09 04:18:00,
2013-11-08 23:23:00,44.9,30.2,30.14,SSW,194,6.0,6.0,56,0.00,,---,0.00,VWS V14.00,2013-11-09 04:23:00,
2013-11-08 23:28:00,45.0,29.8,30.14,South,182,4.0,6.0,55,0.00,,---,0.00,VWS V14.00,2013-11-09 04:28:00,
2013-11-08 23:33:00,44.7,29.5,30.14,South,173,3.0,7.0,55,0.00,,---,0.00,VWS V14.00,2013-11-09 04:33:00,
2013-11-08 23:38:00,44.8,30.1,30.14,South,178,5.0,5.0,56,0.00,,---,0.00,VWS V14.00,2013-11-09 04:38:00,
2013-11-08 23:43:00,45.0,29.8,30.14,South,175,0.0,8.0,55,0.00,,---,0.00,VWS V14.00,2013-11-09 04:43:00,
2013-11-08 23:49:00,44.9,29.7,30.14,SSW,213,0.0,8.0,55,0.00,,---,0.00,VWS V14.00,2013-11-09 04:49:00,
2013-11-08 23:54:00,44.7,30.0,30.14,South,183,2.0,8.0,56,0.00,,---,0.00,VWS V14.00,2013-11-09 04:54:00,
2013-11-08 23:59:00,44.9,30.2,30.14,South,186,4.0,8.0,56,0.00,,---,0.00,VWS V14.00,2013-11-09 04:59:00,